Flight Track Log - Related Links

Times and Time Zones

All times are in EST time to prevent confusion due to time zone crossing. See the UCA3596 flight status page for this flight to view local times or setup timezone preferences in your user account.

Time Position Orientation Groundspeed Altitude Reporting Facility
EST Latitude Longitude Course Direction KTS MPH feet Rate Location/Type
Tue 01:12:00 PM 39.4267 -77.2517 19° North  Level Estimated
Tue 01:13:00 PM 39.5065 -77.2168 19° North  Level Estimated
Tue 01:14:00 PM 39.5593 -77.1936 19° North  Level Estimated
Tue 01:15:00 PM 39.6121 -77.1704 19° North  Level Estimated
Tue 01:16:00 PM 39.6648 -77.1471 19° North  Level Estimated
Tue 01:17:00 PM 39.7176 -77.1238 19° North  Level Estimated
Tue 01:18:00 PM 39.7704 -77.1005 19° North  Level Estimated
Tue 01:19:00 PM 39.8232 -77.0772 19° North  Level Estimated
Tue 01:20:00 PM 39.8759 -77.0538 19° North  Level Estimated
Tue 01:21:00 PM 39.9287 -77.0304 19° North  Level Estimated
Tue 01:22:00 PM 39.9814 -77.0069 19° North  Level Estimated
Tue 01:23:00 PM 40.0342 -76.9834 19° North  Level Estimated
Tue 01:24:00 PM 40.0869 -76.9599 19° North  Level Estimated
Tue 01:25:00 PM 40.1396 -76.9363 19° North  Level Estimated
Tue 01:26:00 PM 40.1924 -76.9127 19° North  Level Estimated
Tue 01:27:00 PM 40.2451 -76.8891 19° North  Level Estimated
Tue 01:28:00 PM 40.2978 -76.8654 19° North  Level Estimated
Tue 01:29:00 PM 40.3506 -76.8417 19° North  Level Estimated
Tue 01:30:00 PM 40.4033 -76.8179 19° North  Level Estimated
Tue 01:31:00 PM 40.4560 -76.7941 19° North  Level Estimated
Tue 01:32:00 PM 40.5087 -76.7703 19° North  Level Estimated
Tue 01:33:00 PM 40.5614 -76.7464 19° North  Level Estimated
Tue 01:34:00 PM 40.6141 -76.7225 19° North  Level Estimated
Tue 01:35:00 PM 40.6668 -76.6986 19° North  Level Estimated
Tue 01:36:00 PM 40.7194 -76.6746 19° North  Level Estimated
Tue 01:37:00 PM 40.7721 -76.6506 19° North  Level Estimated
Tue 01:38:00 PM 40.8248 -76.6265 19° North  Level Estimated
Tue 01:39:00 PM 40.8774 -76.6024 19° North  Level Estimated
Tue 01:40:00 PM 40.9301 -76.5783 19° North  Level Estimated
Tue 01:41:00 PM 40.9828 -76.5541 19° North  Level Estimated
Tue 01:42:00 PM 41.0354 -76.5299 19° North  Level Estimated
Tue 01:43:00 PM 41.0881 -76.5057 19° North  Level Estimated
Tue 01:44:00 PM 41.1407 -76.4814 19° North  Level Estimated
Tue 01:45:00 PM 41.1934 -76.4570 19° North  Level Estimated
Tue 01:46:00 PM 41.2460 -76.4327 19° North  Level Estimated
Tue 01:47:00 PM 41.2986 -76.4083 19° North  Level Estimated
Tue 01:48:00 PM 41.3512 -76.3838 19° North  Level Estimated
Tue 01:49:00 PM 41.4039 -76.3594 19° North  Level Estimated
Tue 01:50:00 PM 41.4565 -76.3348 19° North  Level Estimated
Tue 01:51:00 PM 41.5091 -76.3103 19° North  Level Estimated
Tue 01:52:00 PM 41.5617 -76.2857 19° North  Level Estimated
Tue 01:53:00 PM 41.6143 -76.2610 19° North  Level Estimated
Tue 01:54:00 PM 41.6669 -76.2363 19° North  Level Estimated
Tue 01:55:00 PM 41.7194 -76.2116 19° North  Level Estimated
Tue 01:56:00 PM 41.7720 -76.1868 19° North  Level Estimated
Tue 01:57:00 PM 41.8246 -76.1620 19° North  Level Estimated
Tue 01:58:00 PM 41.8772 -76.1372 19° North  Level Estimated
Tue 01:59:00 PM 41.9297 -76.1123 19° North  Level Estimated
Tue 02:00:00 PM 41.9823 -76.0874 19° North  Level Estimated
Tue 02:01:00 PM 42.0348 -76.0624 19° North  Level Estimated
Tue 02:02:00 PM 42.0874 -76.0374 19° North  Level Estimated
Tue 02:03:00 PM 42.1399 -76.0123 19° North  Level Estimated
Tue 02:04:00 PM 42.1925 -75.9873 19° North  Level Estimated
Tue 02:05:00 PM 42.2084 -75.9796 20° North  Level Estimated
Tue 02:06:00 PM 42.2084 -75.9796 35° Northeast  Level Estimated
Tue 02:07:00 PM 42.2084 -75.9796 35° Northeast  Level Estimated
Tue 02:08:00 PM 42.2084 -75.9796 35° Northeast  Level Estimated
Tue 02:09:00 PM 42.2084 -75.9796 35° Northeast  Level Estimated
Tue 02:10:00 PM 42.2084 -75.9796 35° Northeast  Level Estimated
Tue 02:11:00 PM 42.2084 -75.9796 35° Northeast  Level Estimated
Tue 02:12:00 PM 42.2084 -75.9796 35° Northeast  Level Estimated
Tue 02:13:00 PM 42.2084 -75.9796 35° Northeast  Level Estimated
Tue 02:14:00 PM 42.2084 -75.9796 35° Northeast  Level Estimated
Tue 02:15:00 PM 42.2084 -75.9796 35° Northeast  Level Estimated
Tue 02:16:00 PM 42.2084 -75.9796 35° Northeast  Level Estimated
Tue 02:17:00 PM 42.2084 -75.9796 35° Northeast  Level Estimated
Tue 02:18:00 PM 42.2084 -75.9796 35° Northeast  Level Estimated
Tue 02:19:00 PM 42.2084 -75.9796 35° Northeast  Level Estimated
Tue 02:20:00 PM 42.2084 -75.9796 35° Northeast  Level Estimated
Tue 02:21:00 PM 42.2084 -75.9796 35° Northeast  Level Estimated
Tue 02:22:00 PM 42.2084 -75.9796 35° Northeast  Level Estimated
Tue 02:23:00 PM 42.2084 -75.9796 35° Northeast  Level Estimated
Tue 02:24:00 PM 42.2084 -75.9796 35° Northeast  Level Estimated

Login

Don't have an account? Register now (free) for customized features, flight alerts, and more!